Time;durP1;ratioP1;P1;durP2;ratioP2;P2;SDS_P1;SDS_P2;PMS_P1;PMS_P2;Temp;Humidity;BMP_temperature;BMP_pressure;BME280_temperature;BME280_humidity;BME280_pressure;Samples;Min_cycle;Max_cycle;Signal;HPM_P1;HPM_P2
2021/11/23 00:02:14;;;;;;;3.33;2.70;;;;;;;;;;5018322;28;20034;-48
2021/11/23 00:04:40;;;;;;;3.10;2.30;;;;;;;;;;5020490;28;20036;-48
2021/11/23 00:07:06;;;;;;;2.60;2.00;;;;;;;;;;5014405;28;20034;-47
2021/11/23 00:09:31;;;;;;;3.97;2.55;;;;;;;;;;5017881;28;20045;-51
2021/11/23 00:11:56;;;;;;;2.80;1.92;;;;;;;;;;5015426;28;20064;-46
2021/11/23 00:14:22;;;;;;;2.65;1.92;;;;;;;;;;5013756;28;20041;-46
2021/11/23 00:16:47;;;;;;;3.35;2.33;;;;;;;;;;5015471;28;20041;-49
2021/11/23 00:19:14;;;;;;;2.90;2.10;;;;;;;;;;5015043;28;20033;-47
2021/11/23 00:21:39;;;;;;;3.85;3.00;;;;;;;;;;5015527;28;20026;-47
2021/11/23 00:24:05;;;;;;;6.13;2.72;;;;;;;;;;5015179;28;20034;-47
2021/11/23 00:26:30;;;;;;;3.55;2.67;;;;;;;;;;5016654;28;20034;-47
2021/11/23 00:28:55;;;;;;;2.80;2.05;;;;;;;;;;5014638;28;20058;-47
2021/11/23 00:31:21;;;;;;;3.40;2.45;;;;;;;;;;5015273;28;20034;-49
2021/11/23 00:33:46;;;;;;;2.83;2.20;;;;;;;;;;5016231;28;20072;-47
2021/11/23 00:36:12;;;;;;;3.13;2.22;;;;;;;;;;5015236;28;20026;-46
2021/11/23 00:38:45;;;;;;;3.00;2.13;;;;;;;;;;5016337;28;20034;-46
2021/11/23 00:41:12;;;;;;;2.38;1.80;;;;;;;;;;5014244;28;20057;-47
2021/11/23 00:43:38;;;;;;;4.85;2.67;;;;;;;;;;5016090;28;20044;-50
2021/11/23 00:46:03;;;;;;;4.15;2.33;;;;;;;;;;5019436;28;20025;-49
2021/11/23 00:48:29;;;;;;;2.90;2.13;;;;;;;;;;5015987;28;20065;-46
2021/11/23 00:50:54;;;;;;;5.35;3.65;;;;;;;;;;5013244;28;20100;-48
2021/11/23 00:53:20;;;;;;;2.70;2.10;;;;;;;;;;5018026;28;20464;-46
2021/11/23 00:55:45;;;;;;;4.38;2.80;;;;;;;;;;5014253;28;20469;-47
2021/11/23 00:58:11;;;;;;;3.70;2.53;;;;;;;;;;5014517;28;20042;-47
2021/11/23 01:00:36;;;;;;;2.95;2.00;;;;;;;;;;5016515;28;20041;-48
2021/11/23 01:03:02;;;;;;;2.65;2.00;;;;;;;;;;5017092;28;20069;-47
2021/11/23 01:05:27;;;;;;;14.93;3.00;;;;;;;;;;5012601;28;20037;-46
2021/11/23 01:07:53;;;;;;;3.55;2.72;;;;;;;;;;5016893;28;20036;-50
2021/11/23 01:10:18;;;;;;;2.60;1.88;;;;;;;;;;5016411;28;20037;-50
2021/11/23 01:12:44;;;;;;;3.05;2.20;;;;;;;;;;5012722;28;20034;-48
2021/11/23 01:15:10;;;;;;;3.78;2.40;;;;;;;;;;5016102;28;20035;-47
2021/11/23 01:17:36;;;;;;;3.03;2.42;;;;;;;;;;5012925;28;20561;-46
2021/11/23 01:20:03;;;;;;;3.60;2.78;;;;;;;;;;5008240;28;20076;-46
2021/11/23 01:22:29;;;;;;;3.78;2.58;;;;;;;;;;5009108;28;20049;-47
2021/11/23 01:24:54;;;;;;;2.72;2.20;;;;;;;;;;5012696;28;20072;-47
2021/11/23 01:27:20;;;;;;;2.95;2.45;;;;;;;;;;5011246;28;20034;-50
2021/11/23 01:29:45;;;;;;;3.28;2.75;;;;;;;;;;5014676;28;20022;-48
2021/11/23 01:32:10;;;;;;;2.97;2.35;;;;;;;;;;5013041;28;20033;-47
2021/11/23 01:34:36;;;;;;;2.80;2.00;;;;;;;;;;5012300;28;20091;-49
2021/11/23 01:37:01;;;;;;;3.25;2.40;;;;;;;;;;5016467;28;20041;-47
2021/11/23 01:39:27;;;;;;;2.60;1.85;;;;;;;;;;5013545;28;20044;-47
2021/11/23 01:41:53;;;;;;;2.72;2.08;;;;;;;;;;5015206;28;20377;-47
2021/11/23 01:44:18;;;;;;;2.97;2.08;;;;;;;;;;5012054;28;20032;-48
2021/11/23 01:46:44;;;;;;;3.28;2.22;;;;;;;;;;5013904;28;20055;-46
2021/11/23 01:49:09;;;;;;;3.13;2.13;;;;;;;;;;5012433;28;20053;-46
2021/11/23 01:51:35;;;;;;;3.17;2.10;;;;;;;;;;5014541;28;20033;-47
2021/11/23 01:54:01;;;;;;;2.80;1.95;;;;;;;;;;5013893;28;20041;-48
2021/11/23 01:56:26;;;;;;;3.22;2.40;;;;;;;;;;5013275;28;20033;-47
2021/11/23 01:58:52;;;;;;;2.60;1.98;;;;;;;;;;5013995;28;20107;-46
2021/11/23 02:01:17;;;;;;;5.80;2.35;;;;;;;;;;5014978;28;20037;-46
2021/11/23 02:03:43;;;;;;;2.85;2.13;;;;;;;;;;5013880;28;20459;-47
2021/11/23 02:06:09;;;;;;;3.30;2.90;;;;;;;;;;5011893;28;20039;-46
2021/11/23 02:08:35;;;;;;;3.22;2.60;;;;;;;;;;5013989;28;20065;-49
2021/11/23 02:11:01;;;;;;;2.92;2.38;;;;;;;;;;5016203;28;20026;-46
2021/11/23 02:13:29;;;;;;;2.90;2.35;;;;;;;;;;5014955;28;20056;-50
2021/11/23 02:15:56;;;;;;;3.22;2.20;;;;;;;;;;5011849;28;20030;-50
2021/11/23 02:18:23;;;;;;;3.08;2.40;;;;;;;;;;5013321;28;20080;-47
2021/11/23 02:20:49;;;;;;;2.83;2.30;;;;;;;;;;5013776;28;20080;-48
2021/11/23 02:23:15;;;;;;;2.75;2.20;;;;;;;;;;5013624;28;20058;-47
2021/11/23 02:25:41;;;;;;;3.50;2.63;;;;;;;;;;5012408;28;20494;-48
2021/11/23 02:28:08;;;;;;;5.70;3.65;;;;;;;;;;5014599;28;20042;-47
2021/11/23 02:30:46;;;;;;;3.60;2.97;;;;;;;;;;5014106;28;20025;-50
2021/11/23 02:33:17;;;;;;;2.80;1.98;;;;;;;;;;5018085;28;20030;-49
2021/11/23 02:35:43;;;;;;;2.85;2.30;;;;;;;;;;5012573;28;20041;-47
2021/11/23 02:38:09;;;;;;;2.75;2.10;;;;;;;;;;5015792;28;20030;-48
2021/11/23 02:40:35;;;;;;;4.82;3.45;;;;;;;;;;5015567;28;20045;-49
2021/11/23 02:43:01;;;;;;;3.50;2.58;;;;;;;;;;5018729;28;20057;-50
2021/11/23 02:45:27;;;;;;;3.17;2.55;;;;;;;;;;5019279;28;20033;-51
2021/11/23 02:47:54;;;;;;;4.20;2.85;;;;;;;;;;5015340;28;20034;-48
2021/11/23 02:50:21;;;;;;;3.33;2.40;;;;;;;;;;5016978;28;20053;-50
2021/11/23 02:52:48;;;;;;;5.30;3.38;;;;;;;;;;5018204;28;20029;-48
2021/11/23 02:55:16;;;;;;;3.25;2.55;;;;;;;;;;5014101;28;20025;-47
2021/11/23 02:57:42;;;;;;;3.55;2.80;;;;;;;;;;5016943;28;20120;-48
2021/11/23 03:00:13;;;;;;;3.15;2.40;;;;;;;;;;5019298;28;20069;-50
2021/11/23 03:02:38;;;;;;;3.88;2.33;;;;;;;;;;5016511;28;20107;-46
2021/11/23 03:05:06;;;;;;;3.10;2.38;;;;;;;;;;5018467;28;20037;-49
2021/11/23 03:07:31;;;;;;;3.00;2.30;;;;;;;;;;5019291;28;20034;-47
2021/11/23 03:09:57;;;;;;;2.83;2.17;;;;;;;;;;5021104;28;20030;-49
2021/11/23 03:12:25;;;;;;;3.10;2.47;;;;;;;;;;5018325;28;20061;-49
2021/11/23 03:14:52;;;;;;;5.72;2.67;;;;;;;;;;5021204;28;20141;-48
2021/11/23 03:17:19;;;;;;;3.38;1.83;;;;;;;;;;5016307;28;20158;-46
2021/11/23 03:19:46;;;;;;;4.60;2.90;;;;;;;;;;5015550;28;20050;-50
2021/11/23 03:22:12;;;;;;;2.75;2.22;;;;;;;;;;5016652;28;20033;-47
2021/11/23 03:24:38;;;;;;;3.67;2.42;;;;;;;;;;5019740;28;20030;-48
2021/11/23 03:27:05;;;;;;;3.35;2.42;;;;;;;;;;5013907;28;20037;-47
2021/11/23 03:29:31;;;;;;;2.60;2.13;;;;;;;;;;5018328;28;20064;-48
2021/11/23 03:31:57;;;;;;;3.05;2.28;;;;;;;;;;5018485;28;20065;-48
2021/11/23 03:34:23;;;;;;;2.80;2.28;;;;;;;;;;5018238;28;20045;-47
2021/11/23 03:36:49;;;;;;;2.97;2.33;;;;;;;;;;5016813;28;20481;-48
2021/11/23 03:39:15;;;;;;;4.57;3.13;;;;;;;;;;5020481;28;20052;-49
2021/11/23 03:41:41;;;;;;;5.25;3.95;;;;;;;;;;5016341;28;20041;-49
2021/11/23 03:44:06;;;;;;;3.30;2.58;;;;;;;;;;5018509;28;20037;-46
2021/11/23 03:46:32;;;;;;;2.80;2.17;;;;;;;;;;5015900;28;20125;-48
2021/11/23 03:48:58;;;;;;;3.08;2.33;;;;;;;;;;5015972;28;20033;-46
2021/11/23 03:51:24;;;;;;;2.75;1.88;;;;;;;;;;5014623;28;20034;-47
2021/11/23 03:53:49;;;;;;;2.88;2.30;;;;;;;;;;5016384;28;20036;-46
2021/11/23 03:56:14;;;;;;;2.60;1.90;;;;;;;;;;5016870;28;20041;-46
2021/11/23 03:58:41;;;;;;;2.88;2.15;;;;;;;;;;5014279;28;20029;-46
2021/11/23 04:01:07;;;;;;;3.17;2.47;;;;;;;;;;5020115;28;20061;-47
2021/11/23 04:03:33;;;;;;;3.08;2.25;;;;;;;;;;5014850;28;20180;-46
2021/11/23 04:05:59;;;;;;;3.53;2.75;;;;;;;;;;5012150;28;20105;-46
2021/11/23 04:08:25;;;;;;;2.83;2.33;;;;;;;;;;5018644;28;20128;-46
2021/11/23 04:10:50;;;;;;;3.05;2.28;;;;;;;;;;5014520;28;20124;-46
2021/11/23 04:13:18;;;;;;;2.97;2.13;;;;;;;;;;5013535;28;20598;-48
2021/11/23 04:15:43;;;;;;;3.58;2.60;;;;;;;;;;5015476;28;20030;-47
2021/11/23 04:18:09;;;;;;;7.07;2.97;;;;;;;;;;5019231;28;20611;-46
2021/11/23 04:20:34;;;;;;;3.00;2.33;;;;;;;;;;5017113;28;20038;-45
2021/11/23 04:23:00;;;;;;;3.33;2.30;;;;;;;;;;5018103;28;20022;-46
2021/11/23 04:25:26;;;;;;;5.28;2.78;;;;;;;;;;5018065;28;20048;-48
2021/11/23 04:27:52;;;;;;;3.30;2.60;;;;;;;;;;5017258;28;20038;-47
2021/11/23 04:30:18;;;;;;;4.32;2.95;;;;;;;;;;5013260;28;20038;-44
2021/11/23 04:32:43;;;;;;;3.13;2.50;;;;;;;;;;5014593;28;20034;-45
2021/11/23 04:35:09;;;;;;;2.55;1.80;;;;;;;;;;5015093;28;20525;-45
2021/11/23 04:37:35;;;;;;;6.43;2.80;;;;;;;;;;5019233;28;20037;-47
2021/11/23 04:40:05;;;;;;;3.28;2.30;;;;;;;;;;5018392;28;20043;-45
2021/11/23 04:42:30;;;;;;;7.18;2.88;;;;;;;;;;5016326;28;20037;-44
2021/11/23 04:44:56;;;;;;;3.25;2.30;;;;;;;;;;5018303;28;20087;-46
2021/11/23 04:47:21;;;;;;;3.03;2.30;;;;;;;;;;5016521;28;20041;-50
2021/11/23 04:49:47;;;;;;;3.17;2.53;;;;;;;;;;5016160;28;20033;-45
2021/11/23 04:52:12;;;;;;;3.35;2.42;;;;;;;;;;5017143;28;20073;-46
2021/11/23 04:54:38;;;;;;;3.38;2.33;;;;;;;;;;5015813;28;20345;-50
2021/11/23 04:57:05;;;;;;;3.88;2.10;;;;;;;;;;5016890;28;20041;-47
2021/11/23 04:59:30;;;;;;;4.75;2.50;;;;;;;;;;5014141;28;20045;-45
2021/11/23 05:01:56;;;;;;;3.58;2.63;;;;;;;;;;5011283;28;20022;-45
2021/11/23 05:04:21;;;;;;;4.75;3.17;;;;;;;;;;5013433;28;20038;-45
2021/11/23 05:06:47;;;;;;;3.17;2.40;;;;;;;;;;5016116;28;20044;-47
2021/11/23 05:09:12;;;;;;;2.55;1.95;;;;;;;;;;5016525;28;20124;-47
2021/11/23 05:11:40;;;;;;;3.10;2.20;;;;;;;;;;5016807;28;20356;-47
2021/11/23 05:14:05;;;;;;;2.60;2.00;;;;;;;;;;5015954;28;20060;-47
2021/11/23 05:16:31;;;;;;;3.22;2.38;;;;;;;;;;5016407;28;20046;-46
2021/11/23 05:18:56;;;;;;;4.65;3.28;;;;;;;;;;5013343;28;20111;-46
2021/11/23 05:21:22;;;;;;;3.90;3.08;;;;;;;;;;5017096;28;20073;-47
2021/11/23 05:23:47;;;;;;;3.22;2.50;;;;;;;;;;5011823;28;20042;-48
2021/11/23 05:26:12;;;;;;;3.08;2.28;;;;;;;;;;5017047;28;20111;-47
2021/11/23 05:28:38;;;;;;;2.95;2.33;;;;;;;;;;5014377;28;20187;-50
2021/11/23 05:31:03;;;;;;;3.40;2.78;;;;;;;;;;5014749;28;20052;-49
2021/11/23 05:33:29;;;;;;;3.33;2.50;;;;;;;;;;4999299;28;20037;-50
2021/11/23 05:35:54;;;;;;;3.35;2.63;;;;;;;;;;5011944;28;20044;-47
2021/11/23 05:38:20;;;;;;;2.92;2.45;;;;;;;;;;5016208;28;20045;-49
2021/11/23 05:40:47;;;;;;;3.95;2.83;;;;;;;;;;5019710;28;20068;-49
2021/11/23 05:43:13;;;;;;;3.63;2.72;;;;;;;;;;5015789;28;20042;-48
2021/11/23 05:45:39;;;;;;;2.88;2.25;;;;;;;;;;5014234;28;20160;-46
2021/11/23 05:48:05;;;;;;;9.80;3.60;;;;;;;;;;5013699;28;20113;-45
2021/11/23 05:50:31;;;;;;;3.45;2.97;;;;;;;;;;5014237;28;20037;-46
2021/11/23 05:52:56;;;;;;;2.97;2.38;;;;;;;;;;5017389;28;20040;-48
2021/11/23 05:55:22;;;;;;;3.28;2.58;;;;;;;;;;5013024;28;20038;-48
2021/11/23 05:57:47;;;;;;;3.35;2.78;;;;;;;;;;5013277;28;20034;-47
2021/11/23 06:00:13;;;;;;;3.35;2.30;;;;;;;;;;5014140;28;20383;-47
2021/11/23 06:02:38;;;;;;;4.40;2.63;;;;;;;;;;5014669;28;20032;-47
2021/11/23 06:05:04;;;;;;;3.30;2.63;;;;;;;;;;5007926;28;20053;-47
2021/11/23 06:07:30;;;;;;;3.45;2.92;;;;;;;;;;5014150;28;20567;-48
2021/11/23 06:09:55;;;;;;;4.05;2.70;;;;;;;;;;5016266;28;20105;-46
2021/11/23 06:12:21;;;;;;;3.38;2.75;;;;;;;;;;5013344;28;20053;-47
2021/11/23 06:14:47;;;;;;;3.40;2.92;;;;;;;;;;5015664;28;20034;-48
2021/11/23 06:17:13;;;;;;;2.70;2.17;;;;;;;;;;5016181;28;20037;-47
2021/11/23 06:19:38;;;;;;;4.45;2.30;;;;;;;;;;5016593;28;20033;-47
2021/11/23 06:22:06;;;;;;;3.33;2.78;;;;;;;;;;5013503;28;20033;-47
2021/11/23 06:24:31;;;;;;;2.95;2.45;;;;;;;;;;5008685;28;20116;-46
2021/11/23 06:26:57;;;;;;;3.15;2.67;;;;;;;;;;5015781;28;20767;-44
2021/11/23 06:29:22;;;;;;;3.22;2.70;;;;;;;;;;5017235;28;20036;-48
2021/11/23 06:31:47;;;;;;;3.17;2.33;;;;;;;;;;5014481;28;20037;-47
2021/11/23 06:34:13;;;;;;;5.15;2.95;;;;;;;;;;5013479;28;20132;-46
2021/11/23 06:36:38;;;;;;;3.35;2.10;;;;;;;;;;5011171;28;20030;-46
2021/11/23 06:39:05;;;;;;;4.20;2.22;;;;;;;;;;5014068;28;20045;-46
2021/11/23 06:41:31;;;;;;;4.13;2.88;;;;;;;;;;5011940;28;20033;-46
2021/11/23 06:43:57;;;;;;;3.42;2.65;;;;;;;;;;5013685;28;20034;-48
2021/11/23 06:46:23;;;;;;;3.38;2.67;;;;;;;;;;5013830;28;20030;-45
2021/11/23 06:48:49;;;;;;;3.83;2.75;;;;;;;;;;5014646;28;20057;-47
2021/11/23 06:51:14;;;;;;;3.10;2.45;;;;;;;;;;5011903;28;20472;-54
2021/11/23 06:53:40;;;;;;;4.70;3.75;;;;;;;;;;5014202;28;20038;-54
2021/11/23 06:56:05;;;;;;;7.45;2.55;;;;;;;;;;5013227;28;20443;-53
2021/11/23 06:58:31;;;;;;;2.80;2.30;;;;;;;;;;5013179;28;20239;-53
2021/11/23 07:00:56;;;;;;;3.92;2.33;;;;;;;;;;5011105;28;20595;-49
2021/11/23 07:03:21;;;;;;;5.20;3.30;;;;;;;;;;5007935;28;20387;-51
2021/11/23 07:05:47;;;;;;;3.47;2.80;;;;;;;;;;5010983;28;20030;-51
2021/11/23 07:08:12;;;;;;;3.70;2.92;;;;;;;;;;5015774;28;20042;-50
2021/11/23 07:10:38;;;;;;;3.55;2.83;;;;;;;;;;5012425;28;20030;-50
2021/11/23 07:13:04;;;;;;;4.25;3.35;;;;;;;;;;5011383;28;20033;-51
2021/11/23 07:15:30;;;;;;;4.97;2.70;;;;;;;;;;5011147;28;20418;-52
2021/11/23 07:17:55;;;;;;;3.60;3.17;;;;;;;;;;5012186;28;20029;-49
2021/11/23 07:20:21;;;;;;;3.33;2.83;;;;;;;;;;5014754;28;20046;-52
2021/11/23 07:22:47;;;;;;;3.88;2.53;;;;;;;;;;5011319;28;20026;-50
2021/11/23 07:25:35;;;;;;;3.38;2.53;;;;;;;;;;5023374;28;20010;-53
2021/11/23 07:28:00;;;;;;;3.13;2.53;;;;;;;;;;5011606;28;20048;-50
2021/11/23 07:30:26;;;;;;;3.00;2.65;;;;;;;;;;5017445;28;20359;-49
2021/11/23 07:32:51;;;;;;;3.63;2.78;;;;;;;;;;5017886;28;20049;-51
2021/11/23 07:35:18;;;;;;;3.83;3.28;;;;;;;;;;5015399;28;20034;-50
2021/11/23 07:37:45;;;;;;;3.25;2.75;;;;;;;;;;5016751;28;20033;-54
2021/11/23 07:40:11;;;;;;;3.03;2.72;;;;;;;;;;5016672;28;20045;-51
2021/11/23 07:42:36;;;;;;;5.15;3.60;;;;;;;;;;5011045;28;20447;-52
2021/11/23 07:45:03;;;;;;;5.47;4.20;;;;;;;;;;5015864;28;20030;-51
2021/11/23 07:47:28;;;;;;;8.45;6.78;;;;;;;;;;4999197;28;20033;-52
2021/11/23 07:49:54;;;;;;;10.93;5.95;;;;;;;;;;5018063;28;20077;-51
2021/11/23 07:52:19;;;;;;;15.73;7.35;;;;;;;;;;5019864;28;20494;-50
2021/11/23 07:54:44;;;;;;;7.68;5.47;;;;;;;;;;5014938;28;20022;-52
2021/11/23 07:57:10;;;;;;;12.38;7.75;;;;;;;;;;5017745;28;20371;-53
2021/11/23 07:59:35;;;;;;;19.05;10.20;;;;;;;;;;5016867;28;20041;-52
2021/11/23 08:02:00;;;;;;;20.73;8.05;;;;;;;;;;5016122;28;20791;-51
2021/11/23 08:04:26;;;;;;;17.92;9.95;;;;;;;;;;5032117;28;20037;-49
2021/11/23 08:06:51;;;;;;;11.63;5.97;;;;;;;;;;5010303;28;20049;-49
2021/11/23 08:09:18;;;;;;;8.52;7.32;;;;;;;;;;5014776;28;20049;-50
2021/11/23 08:11:43;;;;;;;8.25;4.40;;;;;;;;;;5013291;28;20395;-47
2021/11/23 08:14:08;;;;;;;7.47;4.15;;;;;;;;;;5007129;28;20144;-49
2021/11/23 08:16:34;;;;;;;9.15;4.22;;;;;;;;;;5014109;28;20034;-50
2021/11/23 08:18:59;;;;;;;6.10;3.45;;;;;;;;;;5015408;28;20121;-48
2021/11/23 08:21:25;;;;;;;3.92;3.13;;;;;;;;;;5015811;28;20617;-48
2021/11/23 08:23:51;;;;;;;4.10;2.80;;;;;;;;;;5015310;28;20100;-48
2021/11/23 08:26:17;;;;;;;9.07;4.35;;;;;;;;;;5015829;28;20037;-48
2021/11/23 08:28:42;;;;;;;4.68;3.35;;;;;;;;;;5012023;28;20033;-46
2021/11/23 08:31:08;;;;;;;4.85;3.45;;;;;;;;;;5005515;28;20076;-46
2021/11/23 08:33:34;;;;;;;3.72;2.95;;;;;;;;;;5012982;28;20030;-46
2021/11/23 08:35:59;;;;;;;3.20;2.55;;;;;;;;;;5013100;28;20048;-47
2021/11/23 08:38:25;;;;;;;5.35;3.90;;;;;;;;;;5013603;28;20068;-48
2021/11/23 08:40:50;;;;;;;3.97;2.92;;;;;;;;;;5015602;28;20037;-46
2021/11/23 08:43:16;;;;;;;15.77;3.63;;;;;;;;;;5011039;28;20029;-48
2021/11/23 08:45:41;;;;;;;4.75;4.00;;;;;;;;;;5016305;28;20119;-47
2021/11/23 08:48:07;;;;;;;3.15;2.53;;;;;;;;;;5012798;28;20534;-46
2021/11/23 08:50:34;;;;;;;3.47;2.60;;;;;;;;;;5011705;28;20041;-47
2021/11/23 08:53:02;;;;;;;3.90;2.92;;;;;;;;;;5014051;28;20037;-49
2021/11/23 08:55:28;;;;;;;4.07;3.35;;;;;;;;;;5013262;28;20037;-46
2021/11/23 08:57:54;;;;;;;4.07;3.28;;;;;;;;;;5013359;28;20470;-48
2021/11/23 09:00:21;;;;;;;3.83;3.03;;;;;;;;;;5013980;28;20037;-46
2021/11/23 09:02:49;;;;;;;5.68;3.90;;;;;;;;;;5015170;28;20032;-51
2021/11/23 09:05:17;;;;;;;5.38;4.18;;;;;;;;;;5015486;28;20037;-52
2021/11/23 09:07:43;;;;;;;5.40;4.28;;;;;;;;;;5014221;28;20052;-47
2021/11/23 09:10:16;;;;;;;4.75;2.95;;;;;;;;;;5013173;28;20033;-47
2021/11/23 09:12:41;;;;;;;5.57;4.22;;;;;;;;;;5009312;28;20043;-45
2021/11/23 09:15:07;;;;;;;4.85;3.05;;;;;;;;;;5010047;28;20037;-49
2021/11/23 09:17:32;;;;;;;5.72;3.00;;;;;;;;;;5013643;28;20459;-46
2021/11/23 09:19:57;;;;;;;4.63;3.45;;;;;;;;;;5011903;28;20710;-49
2021/11/23 09:22:23;;;;;;;3.65;3.03;;;;;;;;;;5012493;28;20037;-49
2021/11/23 09:24:49;;;;;;;4.30;3.30;;;;;;;;;;5012748;28;20080;-49
2021/11/23 09:27:14;;;;;;;4.80;3.38;;;;;;;;;;5015416;28;20037;-49
2021/11/23 09:29:40;;;;;;;7.18;3.22;;;;;;;;;;5010749;28;20462;-52
2021/11/23 09:32:07;;;;;;;7.90;3.88;;;;;;;;;;5010709;28;20798;-50
2021/11/23 09:34:33;;;;;;;4.53;3.72;;;;;;;;;;5012964;28;20110;-47
2021/11/23 09:36:58;;;;;;;3.67;3.08;;;;;;;;;;5013041;28;20041;-47
2021/11/23 09:39:24;;;;;;;3.28;2.85;;;;;;;;;;5010590;28;20041;-48
2021/11/23 09:41:51;;;;;;;3.35;2.92;;;;;;;;;;5010662;28;20520;-49
2021/11/23 09:44:16;;;;;;;3.88;3.42;;;;;;;;;;5013421;28;20041;-52
2021/11/23 09:46:42;;;;;;;5.57;3.78;;;;;;;;;;5015960;28;20117;-51
2021/11/23 09:49:08;;;;;;;7.32;4.32;;;;;;;;;;5008184;28;20038;-48
2021/11/23 09:51:35;;;;;;;4.28;3.88;;;;;;;;;;5010226;28;20678;-50
2021/11/23 09:54:04;;;;;;;3.53;2.90;;;;;;;;;;5013446;28;20425;-50
2021/11/23 09:56:30;;;;;;;4.05;2.92;;;;;;;;;;5013453;28;20033;-50
2021/11/23 09:58:56;;;;;;;3.80;3.30;;;;;;;;;;5013270;28;20033;-52
2021/11/23 10:01:27;;;;;;;3.95;2.92;;;;;;;;;;5011211;28;20195;-49
2021/11/23 10:03:55;;;;;;;3.58;3.13;;;;;;;;;;5013398;28;20045;-48
2021/11/23 10:06:25;;;;;;;3.67;3.25;;;;;;;;;;5013793;28;20116;-51
2021/11/23 10:08:53;;;;;;;7.63;3.83;;;;;;;;;;5012266;28;20072;-51
2021/11/23 10:11:32;;;;;;;4.13;3.50;;;;;;;;;;5014273;28;20034;-49
2021/11/23 10:13:58;;;;;;;7.25;5.18;;;;;;;;;;5008274;28;20092;-52
2021/11/23 10:16:36;;;;;;;4.13;3.58;;;;;;;;;;5010240;28;20030;-48
2021/11/23 10:19:05;;;;;;;3.65;3.30;;;;;;;;;;5013674;28;20531;-48
2021/11/23 10:21:31;;;;;;;4.55;3.83;;;;;;;;;;5011412;28;20095;-51
2021/11/23 10:23:56;;;;;;;6.40;4.85;;;;;;;;;;5010870;28;20029;-51
2021/11/23 10:26:28;;;;;;;4.95;4.25;;;;;;;;;;5010721;28;20534;-51
2021/11/23 10:28:55;;;;;;;5.18;4.03;;;;;;;;;;5025596;28;20064;-50
2021/11/23 10:31:24;;;;;;;3.70;3.28;;;;;;;;;;5008570;28;20063;-51
2021/11/23 10:34:17;;;;;;;4.15;3.50;;;;;;;;;;5010679;28;20045;-49
2021/11/23 10:36:46;;;;;;;3.90;3.47;;;;;;;;;;5009431;28;20046;-48
2021/11/23 10:39:17;;;;;;;3.97;3.30;;;;;;;;;;5011381;28;20474;-47
2021/11/23 10:41:48;;;;;;;6.43;3.83;;;;;;;;;;5012318;28;20130;-50
2021/11/23 10:44:19;;;;;;;4.32;3.83;;;;;;;;;;4995584;28;20391;-48
2021/11/23 10:47:06;;;;;;;6.88;3.88;;;;;;;;;;5015027;28;20038;-49
2021/11/23 10:49:35;;;;;;;4.97;3.78;;;;;;;;;;5011731;28;20042;-48
2021/11/23 10:52:02;;;;;;;3.67;3.20;;;;;;;;;;5008651;28;20534;-51
2021/11/23 10:54:33;;;;;;;7.25;3.90;;;;;;;;;;5010785;28;20042;-46
2021/11/23 10:57:04;;;;;;;4.82;3.67;;;;;;;;;;5012776;28;20511;-46
2021/11/23 10:59:29;;;;;;;5.72;3.28;;;;;;;;;;5011542;28;20133;-48
2021/11/23 11:01:56;;;;;;;4.13;3.72;;;;;;;;;;5012962;28;20514;-48
2021/11/23 11:04:22;;;;;;;5.32;4.22;;;;;;;;;;5014765;28;20486;-48
2021/11/23 11:06:49;;;;;;;4.30;3.28;;;;;;;;;;5013183;28;20045;-50
2021/11/23 11:09:16;;;;;;;3.60;3.22;;;;;;;;;;5017871;28;20099;-49
2021/11/23 11:11:42;;;;;;;4.00;3.50;;;;;;;;;;5017333;28;20509;-48
2021/11/23 11:14:10;;;;;;;4.35;3.22;;;;;;;;;;5014313;28;20037;-49
2021/11/23 11:16:36;;;;;;;5.03;3.53;;;;;;;;;;5009943;28;20026;-50
2021/11/23 11:19:11;;;;;;;3.40;2.90;;;;;;;;;;5011834;28;20684;-47
2021/11/23 11:21:39;;;;;;;3.42;2.70;;;;;;;;;;5009089;28;20412;-49
2021/11/23 11:24:37;;;;;;;3.70;3.20;;;;;;;;;;5008973;28;20068;-48
2021/11/23 11:27:12;;;;;;;4.20;3.70;;;;;;;;;;5009096;28;20353;-46
2021/11/23 11:29:39;;;;;;;3.17;2.83;;;;;;;;;;5008622;28;20076;-50
2021/11/23 11:32:05;;;;;;;3.90;3.50;;;;;;;;;;5009745;28;20525;-51
2021/11/23 11:34:33;;;;;;;3.67;3.20;;;;;;;;;;5008275;28;20037;-49
2021/11/23 11:37:17;;;;;;;3.60;2.88;;;;;;;;;;5008941;28;20040;-50
2021/11/23 11:39:48;;;;;;;2.95;2.45;;;;;;;;;;5008370;28;20060;-49
2021/11/23 11:42:19;;;;;;;5.10;3.58;;;;;;;;;;5008997;28;20543;-50
2021/11/23 11:44:48;;;;;;;4.80;3.22;;;;;;;;;;5008227;28;20412;-50
2021/11/23 11:47:24;;;;;;;4.82;3.05;;;;;;;;;;5007674;28;20037;-50
2021/11/23 11:49:52;;;;;;;5.00;3.95;;;;;;;;;;5007050;28;20033;-48
2021/11/23 11:52:26;;;;;;;3.00;2.60;;;;;;;;;;5008784;28;20072;-49
2021/11/23 11:55:15;;;;;;;4.03;3.03;;;;;;;;;;5008853;28;20092;-50
2021/11/23 11:57:44;;;;;;;3.22;2.92;;;;;;;;;;5007667;28;20540;-49
2021/11/23 12:02:53;;;;;;;7.72;3.25;;;;;;;;;;5008971;28;21475;-48
2021/11/23 12:05:19;;;;;;;4.68;3.95;;;;;;;;;;5008087;28;20132;-49
2021/11/23 12:07:45;;;;;;;3.00;2.60;;;;;;;;;;5008988;28;20100;-46
2021/11/23 12:10:20;;;;;;;3.42;2.55;;;;;;;;;;5008802;28;20372;-50
2021/11/23 12:12:51;;;;;;;3.47;3.17;;;;;;;;;;5007373;28;20120;-47
2021/11/23 12:15:50;;;;;;;3.40;3.10;;;;;;;;;;5008141;28;20046;-46
2021/11/23 12:18:33;;;;;;;2.85;2.45;;;;;;;;;;5005100;28;20131;-49
2021/11/23 12:21:09;;;;;;;3.22;2.58;;;;;;;;;;5006748;28;20025;-46
2021/11/23 12:23:37;;;;;;;5.03;3.33;;;;;;;;;;5022058;28;20026;-46
2021/11/23 12:26:12;;;;;;;2.83;2.45;;;;;;;;;;5006619;28;20033;-49
2021/11/23 12:28:40;;;;;;;3.25;2.60;;;;;;;;;;5007879;28;20025;-45
2021/11/23 12:31:11;;;;;;;5.22;2.70;;;;;;;;;;5007959;28;20215;-51
2021/11/23 12:33:47;;;;;;;;;;;;;;;;;;5008316;28;20476;-48
2021/11/23 12:36:21;;;;;;;2.80;2.50;;;;;;;;;;5006253;28;19917;-48
2021/11/23 12:38:48;;;;;;;3.75;2.90;;;;;;;;;;5007057;28;20034;-45
2021/11/23 12:41:22;;;;;;;5.95;2.95;;;;;;;;;;5006456;28;20033;-49
2021/11/23 12:43:49;;;;;;;3.40;2.75;;;;;;;;;;5008097;28;20038;-47
2021/11/23 12:46:24;;;;;;;3.35;2.88;;;;;;;;;;5008406;28;20125;-47
2021/11/23 12:48:52;;;;;;;3.10;2.70;;;;;;;;;;5007020;28;20042;-46
2021/11/23 12:51:21;;;;;;;6.88;4.60;;;;;;;;;;4982164;28;20050;-46
2021/11/23 12:53:48;;;;;;;6.43;4.47;;;;;;;;;;5005340;28;20877;-50
2021/11/23 12:56:13;;;;;;;4.65;3.85;;;;;;;;;;5005982;28;20038;-47
2021/11/23 12:58:41;;;;;;;3.95;2.70;;;;;;;;;;5006294;28;20096;-47
2021/11/23 13:01:24;;;;;;;4.90;3.78;;;;;;;;;;5002308;28;20126;-47
2021/11/23 13:03:55;;;;;;;5.18;3.35;;;;;;;;;;5002676;28;20030;-46
2021/11/23 13:06:21;;;;;;;5.65;2.65;;;;;;;;;;5005748;28;20037;-51
2021/11/23 13:09:05;;;;;;;7.60;3.97;;;;;;;;;;5007042;28;20044;-50
2021/11/23 13:11:32;;;;;;;3.70;2.65;;;;;;;;;;5006398;28;20041;-49
2021/11/23 13:14:09;;;;;;;3.35;3.00;;;;;;;;;;5005115;28;20041;-48
2021/11/23 13:16:45;;;;;;;3.25;2.95;;;;;;;;;;5006799;28;20030;-46
2021/11/23 13:19:11;;;;;;;3.20;2.78;;;;;;;;;;5003899;28;20033;-48
2021/11/23 13:21:36;;;;;;;2.80;2.38;;;;;;;;;;5005972;28;20483;-47
2021/11/23 13:24:02;;;;;;;2.70;2.30;;;;;;;;;;5004017;28;20065;-46
2021/11/23 13:26:28;;;;;;;3.25;2.95;;;;;;;;;;5006591;28;20029;-47
2021/11/23 13:29:02;;;;;;;2.90;2.35;;;;;;;;;;5006005;28;20084;-46
2021/11/23 13:31:39;;;;;;;3.65;2.63;;;;;;;;;;5005934;28;20112;-46
2021/11/23 13:34:09;;;;;;;2.92;2.25;;;;;;;;;;5005347;28;20345;-47
2021/11/23 13:36:39;;;;;;;3.45;2.78;;;;;;;;;;5001040;28;20581;-48
2021/11/23 13:39:04;;;;;;;2.90;2.45;;;;;;;;;;5005894;28;20045;-46
2021/11/23 13:41:31;;;;;;;3.45;2.67;;;;;;;;;;5005932;28;20061;-49
2021/11/23 13:44:02;;;;;;;3.00;2.53;;;;;;;;;;4997833;28;20034;-47
2021/11/23 13:46:52;;;;;;;3.15;2.55;;;;;;;;;;5004370;28;20049;-45
2021/11/23 13:49:24;;;;;;;7.40;2.38;;;;;;;;;;5006165;28;20033;-50
2021/11/23 13:52:11;;;;;;;2.65;2.15;;;;;;;;;;5005795;28;20034;-47
2021/11/23 13:54:38;;;;;;;3.10;2.50;;;;;;;;;;5006481;28;20133;-45
2021/11/23 13:57:04;;;;;;;3.13;2.72;;;;;;;;;;5004090;28;20038;-49
2021/11/23 13:59:29;;;;;;;3.08;2.65;;;;;;;;;;5002102;28;20037;-50
2021/11/23 14:02:00;;;;;;;2.90;2.45;;;;;;;;;;4997395;28;20034;-48
2021/11/23 14:04:30;;;;;;;3.97;2.65;;;;;;;;;;5001085;28;20030;-47
2021/11/23 14:07:07;;;;;;;3.30;2.70;;;;;;;;;;5004427;28;20372;-48
2021/11/23 14:09:47;;;;;;;3.35;2.88;;;;;;;;;;4997097;28;20399;-46
2021/11/23 14:12:21;;;;;;;2.83;2.37;;;;;;;;;;5004596;28;20030;-49
2021/11/23 14:15:02;;;;;;;3.00;2.47;;;;;;;;;;5007156;28;20038;-49
2021/11/23 14:18:01;;;;;;;2.70;2.20;;;;;;;;;;5006811;28;20089;-45
2021/11/23 14:20:46;;;;;;;3.20;2.58;;;;;;;;;;5003038;28;20225;-50
2021/11/23 14:23:21;;;;;;;3.83;2.90;;;;;;;;;;5006375;28;20121;-47
2021/11/23 14:25:59;;;;;;;4.18;3.45;;;;;;;;;;5006875;28;20029;-46
2021/11/23 14:28:25;;;;;;;3.58;2.50;;;;;;;;;;5005812;28;20032;-47
2021/11/23 14:30:51;;;;;;;3.60;2.88;;;;;;;;;;5006179;28;20517;-51
2021/11/23 14:33:16;;;;;;;4.72;2.50;;;;;;;;;;5006497;28;20503;-48
2021/11/23 14:35:43;;;;;;;3.70;3.10;;;;;;;;;;5006248;28;20029;-55
2021/11/23 14:38:08;;;;;;;3.67;2.75;;;;;;;;;;5011035;28;20037;-53
2021/11/23 14:40:34;;;;;;;2.92;2.45;;;;;;;;;;5010043;28;20044;-55
2021/11/23 14:43:00;;;;;;;3.10;2.47;;;;;;;;;;5010592;28;20037;-52
2021/11/23 14:45:26;;;;;;;6.53;2.63;;;;;;;;;;5009556;28;20053;-54
2021/11/23 14:47:51;;;;;;;5.82;3.10;;;;;;;;;;5010313;28;20679;-55
2021/11/23 14:50:17;;;;;;;2.70;2.13;;;;;;;;;;5009981;28;20041;-53